Airfield :
LOGIN :

Register | Disclaimer

   EN    FR    IT 

 










Legend :    VFR   Marginal VFR   IFR   Intensive IFR   Very Intensive IFR
Visi :
Ceiling :
>= 8 km
>= 3000ft
5 to 8 km
1000 to 3000 ft
1500m to 5 km
500 to 1000 ft
800 to 1500m
200 to 500 ft
< 800m
< 200 ft
Symbols :   Thunderstorms  Fog  Heavy snow  Heavy precipitations  Wind > 20 kt
SIGMETs :     Misc.  Thunderstorms  Icing  Turbulence  Mountain Waves  Volcanic Ashes







- Airport Elevation : 913 ft
- Download approach charts


LFSX - Luxeuil

CURRENT METAR :
  • 170730Z AUTO VRB01KT CAVOK 21/18 Q1020 TEMPO SCT030TCU

EXPIRED METARs :
  • 170700Z AUTO VRB01KT CAVOK 20/18 Q1020 NOSIG
  • 170630Z AUTO 12003KT CAVOK 19/18 Q1020 BECMG 24010KT
  • 170600Z AUTO 10004KT CAVOK 18/17 Q1020 BECMG 24010KT
  • 170530Z AUTO 11003KT CAVOK 18/17 Q1020 BECMG 24010KT
  • 170500Z AUTO 11003KT CAVOK 17/16 Q1020 BECMG 24010KT

TAF AMD TAF LFSX
Valid from the 17 at 04:00 until the 18 at 03:00 UTC


170400Z 1704/1803 24010KT 9999 SCT030
TEMPO 1709/1712 SCT030TCU
BECMG 1716/1719 10003KT
No reported NOTAMs for that airfield.



MET'MAP, your aeronautical weather chart ! - Copyright ORBIFLY December 2007 - Disclaimer

ORBIFLY MET'MAP TEAM :

Programming & Development : Alexandra Zaïnal
Concept & Development : Baudouin d'Aumeries
Co-Development & Prog : Marc-Olivier Méhu
Technical & hardware support : Manuel Goepfert

Contact : metmap@orbifly.com




SOURCES & CREDITS :

   NOAA